sensor_id;sensor_type;location;lat;lon;timestamp;P1;durP1;ratioP1;P2;durP2;ratioP2
17449;SDS011;8842;51.244;7.102;2022-10-15T00:01:31;10.00;;;9.50;;
17449;SDS011;8842;51.244;7.102;2022-10-15T00:06:35;9.77;;;9.27;;
17449;SDS011;8842;51.244;7.102;2022-10-15T00:11:49;10.00;;;9.50;;
17449;SDS011;8842;51.244;7.102;2022-10-15T00:16:53;9.70;;;9.20;;
17449;SDS011;8842;51.244;7.102;2022-10-15T00:22:08;10.20;;;9.70;;
17449;SDS011;8842;51.244;7.102;2022-10-15T00:32:23;10.03;;;9.53;;
17449;SDS011;8842;51.244;7.102;2022-10-15T00:37:27;10.00;;;9.50;;
17449;SDS011;8842;51.244;7.102;2022-10-15T00:42:32;9.80;;;9.30;;
17449;SDS011;8842;51.244;7.102;2022-10-15T00:47:47;9.40;;;8.90;;
17449;SDS011;8842;51.244;7.102;2022-10-15T00:58:09;9.70;;;9.20;;
17449;SDS011;8842;51.244;7.102;2022-10-15T01:03:17;9.50;;;9.00;;
17449;SDS011;8842;51.244;7.102;2022-10-15T01:13:36;9.40;;;8.90;;
17449;SDS011;8842;51.244;7.102;2022-10-15T01:18:44;9.60;;;9.10;;
17449;SDS011;8842;51.244;7.102;2022-10-15T01:24:05;9.40;;;8.90;;
17449;SDS011;8842;51.244;7.102;2022-10-15T01:29:45;9.43;;;8.93;;
17449;SDS011;8842;51.244;7.102;2022-10-15T01:40:05;9.70;;;9.20;;
17449;SDS011;8842;51.244;7.102;2022-10-15T01:50:25;10.10;;;9.60;;
17449;SDS011;8842;51.244;7.102;2022-10-15T01:55:32;9.50;;;9.00;;
17449;SDS011;8842;51.244;7.102;2022-10-15T02:00:46;9.70;;;9.20;;
17449;SDS011;8842;51.244;7.102;2022-10-15T02:05:54;9.60;;;9.10;;
17449;SDS011;8842;51.244;7.102;2022-10-15T02:11:07;9.20;;;8.77;;
17449;SDS011;8842;51.244;7.102;2022-10-15T02:21:26;9.40;;;8.90;;
17449;SDS011;8842;51.244;7.102;2022-10-15T02:31:44;9.40;;;8.90;;
17449;SDS011;8842;51.244;7.102;2022-10-15T02:42:02;9.40;;;8.90;;
17449;SDS011;8842;51.244;7.102;2022-10-15T02:47:08;9.43;;;8.93;;
17449;SDS011;8842;51.244;7.102;2022-10-15T02:52:19;9.80;;;9.30;;
17449;SDS011;8842;51.244;7.102;2022-10-15T03:02:37;9.67;;;9.17;;
17449;SDS011;8842;51.244;7.102;2022-10-15T03:07:41;10.10;;;9.60;;
17449;SDS011;8842;51.244;7.102;2022-10-15T03:12:53;9.90;;;9.40;;
17449;SDS011;8842;51.244;7.102;2022-10-15T03:23:08;10.10;;;9.60;;
17449;SDS011;8842;51.244;7.102;2022-10-15T03:28:20;10.00;;;9.50;;
17449;SDS011;8842;51.244;7.102;2022-10-15T03:38:36;9.83;;;9.33;;
17449;SDS011;8842;51.244;7.102;2022-10-15T03:43:40;9.93;;;9.43;;
17449;SDS011;8842;51.244;7.102;2022-10-15T03:49:04;10.50;;;9.90;;
17449;SDS011;8842;51.244;7.102;2022-10-15T03:54:16;9.97;;;9.47;;
17449;SDS011;8842;51.244;7.102;2022-10-15T03:59:28;9.97;;;9.47;;
17449;SDS011;8842;51.244;7.102;2022-10-15T04:09:43;9.87;;;9.37;;
17449;SDS011;8842;51.244;7.102;2022-10-15T04:19:59;9.90;;;9.40;;
17449;SDS011;8842;51.244;7.102;2022-10-15T04:25:11;10.30;;;9.80;;
17449;SDS011;8842;51.244;7.102;2022-10-15T04:30:15;10.20;;;9.70;;
17449;SDS011;8842;51.244;7.102;2022-10-15T04:35:27;10.13;;;9.63;;
17449;SDS011;8842;51.244;7.102;2022-10-15T04:40:32;10.60;;;10.10;;
17449;SDS011;8842;51.244;7.102;2022-10-15T04:45:43;10.40;;;9.90;;
17449;SDS011;8842;51.244;7.102;2022-10-15T04:50:58;9.80;;;9.30;;
17449;SDS011;8842;51.244;7.102;2022-10-15T04:56:13;10.20;;;9.70;;
17449;SDS011;8842;51.244;7.102;2022-10-15T05:01:28;10.00;;;9.50;;
17449;SDS011;8842;51.244;7.102;2022-10-15T05:11:46;10.20;;;9.70;;
17449;SDS011;8842;51.244;7.102;2022-10-15T05:16:50;10.20;;;9.70;;
17449;SDS011;8842;51.244;7.102;2022-10-15T05:22:01;10.20;;;9.70;;
17449;SDS011;8842;51.244;7.102;2022-10-15T05:27:06;10.30;;;9.80;;
17449;SDS011;8842;51.244;7.102;2022-10-15T05:32:17;10.20;;;9.70;;
17449;SDS011;8842;51.244;7.102;2022-10-15T05:37:22;10.37;;;9.87;;
17449;SDS011;8842;51.244;7.102;2022-10-15T05:42:34;10.33;;;9.73;;
17449;SDS011;8842;51.244;7.102;2022-10-15T05:47:39;10.90;;;10.30;;
17449;SDS011;8842;51.244;7.102;2022-10-15T05:58:07;10.10;;;9.60;;
17449;SDS011;8842;51.244;7.102;2022-10-15T06:03:12;10.50;;;10.00;;
17449;SDS011;8842;51.244;7.102;2022-10-15T06:08:16;10.30;;;9.80;;
17449;SDS011;8842;51.244;7.102;2022-10-15T06:13:28;10.00;;;9.50;;
17449;SDS011;8842;51.244;7.102;2022-10-15T06:18:32;9.67;;;9.17;;
17449;SDS011;8842;51.244;7.102;2022-10-15T06:23:44;9.57;;;9.07;;
17449;SDS011;8842;51.244;7.102;2022-10-15T06:28:56;9.50;;;9.00;;
17449;SDS011;8842;51.244;7.102;2022-10-15T06:39:12;9.00;;;8.60;;
17449;SDS011;8842;51.244;7.102;2022-10-15T06:44:16;9.13;;;8.70;;
17449;SDS011;8842;51.244;7.102;2022-10-15T06:49:28;9.10;;;8.70;;
17449;SDS011;8842;51.244;7.102;2022-10-15T06:54:32;9.10;;;8.70;;
17449;SDS011;8842;51.244;7.102;2022-10-15T06:59:44;9.43;;;8.93;;
17449;SDS011;8842;51.244;7.102;2022-10-15T07:04:58;9.30;;;8.80;;
17449;SDS011;8842;51.244;7.102;2022-10-15T07:10:10;9.37;;;8.87;;
17449;SDS011;8842;51.244;7.102;2022-10-15T07:20:26;8.70;;;8.30;;
17449;SDS011;8842;51.244;7.102;2022-10-15T07:25:31;9.13;;;8.73;;
17449;SDS011;8842;51.244;7.102;2022-10-15T07:30:43;8.80;;;8.40;;
17449;SDS011;8842;51.244;7.102;2022-10-15T07:35:47;8.63;;;8.23;;
17449;SDS011;8842;51.244;7.102;2022-10-15T07:40:59;8.90;;;8.50;;
17449;SDS011;8842;51.244;7.102;2022-10-15T07:46:04;8.53;;;8.13;;
17449;SDS011;8842;51.244;7.102;2022-10-15T07:51:09;8.90;;;8.50;;
17449;SDS011;8842;51.244;7.102;2022-10-15T07:56:21;8.90;;;8.50;;
17449;SDS011;8842;51.244;7.102;2022-10-15T08:06:36;9.60;;;9.03;;
17449;SDS011;8842;51.244;7.102;2022-10-15T08:11:41;9.40;;;8.90;;
17449;SDS011;8842;51.244;7.102;2022-10-15T08:16:55;10.03;;;9.53;;
17449;SDS011;8842;51.244;7.102;2022-10-15T08:27:13;8.70;;;8.30;;
17449;SDS011;8842;51.244;7.102;2022-10-15T08:37:28;8.70;;;8.30;;
17449;SDS011;8842;51.244;7.102;2022-10-15T08:42:38;8.60;;;8.20;;
17449;SDS011;8842;51.244;7.102;2022-10-15T08:47:45;8.63;;;8.23;;
17449;SDS011;8842;51.244;7.102;2022-10-15T08:52:52;9.60;;;9.10;;
17449;SDS011;8842;51.244;7.102;2022-10-15T08:58:06;8.10;;;7.70;;
17449;SDS011;8842;51.244;7.102;2022-10-15T09:03:23;8.80;;;8.40;;
17449;SDS011;8842;51.244;7.102;2022-10-15T09:08:39;8.07;;;7.67;;
17449;SDS011;8842;51.244;7.102;2022-10-15T09:13:47;8.33;;;7.93;;
17449;SDS011;8842;51.244;7.102;2022-10-15T09:18:59;8.23;;;7.83;;
17449;SDS011;8842;51.244;7.102;2022-10-15T09:24:08;8.00;;;7.60;;
17449;SDS011;8842;51.244;7.102;2022-10-15T09:29:22;8.40;;;8.00;;
17449;SDS011;8842;51.244;7.102;2022-10-15T09:34:38;7.97;;;7.57;;
17449;SDS011;8842;51.244;7.102;2022-10-15T09:39:52;8.10;;;7.70;;
17449;SDS011;8842;51.244;7.102;2022-10-15T09:45:03;8.60;;;8.20;;
17449;SDS011;8842;51.244;7.102;2022-10-15T09:50:18;8.43;;;8.03;;
17449;SDS011;8842;51.244;7.102;2022-10-15T10:00:51;8.07;;;7.67;;
17449;SDS011;8842;51.244;7.102;2022-10-15T10:06:02;8.57;;;8.17;;
17449;SDS011;8842;51.244;7.102;2022-10-15T10:11:15;8.43;;;8.03;;
17449;SDS011;8842;51.244;7.102;2022-10-15T10:16:29;8.00;;;7.60;;
17449;SDS011;8842;51.244;7.102;2022-10-15T10:26:48;6.70;;;6.40;;
17449;SDS011;8842;51.244;7.102;2022-10-15T10:31:53;6.80;;;6.50;;
17449;SDS011;8842;51.244;7.102;2022-10-15T10:37:04;7.13;;;6.83;;
17449;SDS011;8842;51.244;7.102;2022-10-15T10:47:25;7.37;;;7.07;;
17449;SDS011;8842;51.244;7.102;2022-10-15T10:57:44;8.20;;;7.80;;
17449;SDS011;8842;51.244;7.102;2022-10-15T11:08:07;7.20;;;6.90;;
17449;SDS011;8842;51.244;7.102;2022-10-15T11:13:19;8.40;;;8.00;;
17449;SDS011;8842;51.244;7.102;2022-10-15T11:23:53;8.17;;;7.77;;
17449;SDS011;8842;51.244;7.102;2022-10-15T11:34:18;8.10;;;7.70;;
17449;SDS011;8842;51.244;7.102;2022-10-15T11:39:33;8.10;;;7.70;;
17449;SDS011;8842;51.244;7.102;2022-10-15T11:45:01;8.70;;;8.30;;
17449;SDS011;8842;51.244;7.102;2022-10-15T11:55:22;8.80;;;8.40;;
17449;SDS011;8842;51.244;7.102;2022-10-15T12:00:30;7.40;;;7.10;;
17449;SDS011;8842;51.244;7.102;2022-10-15T12:05:37;9.80;;;9.30;;
17449;SDS011;8842;51.244;7.102;2022-10-15T12:10:55;8.57;;;8.17;;
17449;SDS011;8842;51.244;7.102;2022-10-15T12:21:29;8.83;;;8.43;;
17449;SDS011;8842;51.244;7.102;2022-10-15T12:26:42;9.37;;;8.87;;
17449;SDS011;8842;51.244;7.102;2022-10-15T12:31:47;9.50;;;9.00;;
17449;SDS011;8842;51.244;7.102;2022-10-15T12:37:04;9.40;;;8.90;;
17449;SDS011;8842;51.244;7.102;2022-10-15T12:42:19;9.70;;;9.20;;
17449;SDS011;8842;51.244;7.102;2022-10-15T12:47:45;9.90;;;9.40;;
17449;SDS011;8842;51.244;7.102;2022-10-15T12:52:51;9.97;;;9.47;;
17449;SDS011;8842;51.244;7.102;2022-10-15T12:57:59;9.33;;;8.83;;
17449;SDS011;8842;51.244;7.102;2022-10-15T13:03:20;9.40;;;8.90;;
17449;SDS011;8842;51.244;7.102;2022-10-15T13:13:39;8.90;;;8.50;;
17449;SDS011;8842;51.244;7.102;2022-10-15T13:18:53;9.30;;;8.80;;
17449;SDS011;8842;51.244;7.102;2022-10-15T13:24:00;8.97;;;8.57;;
17449;SDS011;8842;51.244;7.102;2022-10-15T13:29:05;8.70;;;8.30;;
17449;SDS011;8842;51.244;7.102;2022-10-15T13:34:25;8.70;;;8.30;;
17449;SDS011;8842;51.244;7.102;2022-10-15T13:39:32;9.00;;;8.60;;
17449;SDS011;8842;51.244;7.102;2022-10-15T13:44:38;8.40;;;8.00;;
17449;SDS011;8842;51.244;7.102;2022-10-15T13:50:09;8.83;;;8.43;;
17449;SDS011;8842;51.244;7.102;2022-10-15T13:55:21;8.60;;;8.20;;
17449;SDS011;8842;51.244;7.102;2022-10-15T14:00:36;7.93;;;7.53;;
17449;SDS011;8842;51.244;7.102;2022-10-15T14:05:49;8.30;;;7.90;;
17449;SDS011;8842;51.244;7.102;2022-10-15T14:10:57;8.40;;;8.00;;
17449;SDS011;8842;51.244;7.102;2022-10-15T14:16:13;8.10;;;7.70;;
17449;SDS011;8842;51.244;7.102;2022-10-15T14:21:20;8.63;;;8.23;;
17449;SDS011;8842;51.244;7.102;2022-10-15T14:26:34;8.13;;;7.73;;
17449;SDS011;8842;51.244;7.102;2022-10-15T14:36:49;7.90;;;7.50;;
17449;SDS011;8842;51.244;7.102;2022-10-15T14:42:02;7.73;;;7.33;;
17449;SDS011;8842;51.244;7.102;2022-10-15T14:47:12;7.93;;;7.53;;
17449;SDS011;8842;51.244;7.102;2022-10-15T14:57:34;8.23;;;7.83;;
17449;SDS011;8842;51.244;7.102;2022-10-15T15:02:38;8.10;;;7.70;;
17449;SDS011;8842;51.244;7.102;2022-10-15T15:07:42;8.47;;;8.07;;
17449;SDS011;8842;51.244;7.102;2022-10-15T15:12:55;7.20;;;6.90;;
17449;SDS011;8842;51.244;7.102;2022-10-15T15:18:09;7.97;;;7.57;;
17449;SDS011;8842;51.244;7.102;2022-10-15T15:28:26;8.70;;;8.30;;
17449;SDS011;8842;51.244;7.102;2022-10-15T15:38:42;8.70;;;8.30;;
17449;SDS011;8842;51.244;7.102;2022-10-15T15:49:01;10.90;;;10.30;;
17449;SDS011;8842;51.244;7.102;2022-10-15T15:59:19;11.70;;;11.10;;
17449;SDS011;8842;51.244;7.102;2022-10-15T16:04:34;12.57;;;11.97;;
17449;SDS011;8842;51.244;7.102;2022-10-15T16:09:38;12.00;;;11.40;;
17449;SDS011;8842;51.244;7.102;2022-10-15T16:19:56;12.37;;;11.77;;
17449;SDS011;8842;51.244;7.102;2022-10-15T16:30:14;11.70;;;11.10;;
17449;SDS011;8842;51.244;7.102;2022-10-15T16:40:34;11.87;;;11.27;;
17449;SDS011;8842;51.244;7.102;2022-10-15T16:45:38;11.23;;;10.63;;
17449;SDS011;8842;51.244;7.102;2022-10-15T16:50:42;11.60;;;11.00;;
17449;SDS011;8842;51.244;7.102;2022-10-15T16:55:58;12.40;;;11.80;;
17449;SDS011;8842;51.244;7.102;2022-10-15T17:06:23;12.80;;;12.10;;
17449;SDS011;8842;51.244;7.102;2022-10-15T17:11:30;12.50;;;11.90;;
17449;SDS011;8842;51.244;7.102;2022-10-15T17:16:43;12.03;;;11.43;;
17449;SDS011;8842;51.244;7.102;2022-10-15T17:21:49;13.20;;;12.50;;
17449;SDS011;8842;51.244;7.102;2022-10-15T17:27:01;11.87;;;11.27;;
17449;SDS011;8842;51.244;7.102;2022-10-15T17:37:20;11.90;;;11.30;;
17449;SDS011;8842;51.244;7.102;2022-10-15T17:42:24;12.80;;;12.13;;
17449;SDS011;8842;51.244;7.102;2022-10-15T17:47:38;12.10;;;11.50;;
17449;SDS011;8842;51.244;7.102;2022-10-15T17:52:42;11.90;;;11.30;;
17449;SDS011;8842;51.244;7.102;2022-10-15T17:58:01;13.13;;;12.43;;
17449;SDS011;8842;51.244;7.102;2022-10-15T18:08:25;12.33;;;11.73;;
17449;SDS011;8842;51.244;7.102;2022-10-15T18:13:29;12.30;;;11.70;;
17449;SDS011;8842;51.244;7.102;2022-10-15T18:18:43;12.40;;;11.70;;
17449;SDS011;8842;51.244;7.102;2022-10-15T18:23:48;12.20;;;11.60;;
17449;SDS011;8842;51.244;7.102;2022-10-15T18:28:52;12.00;;;11.40;;
17449;SDS011;8842;51.244;7.102;2022-10-15T18:33:56;12.03;;;11.43;;
17449;SDS011;8842;51.244;7.102;2022-10-15T18:39:10;11.63;;;11.03;;
17449;SDS011;8842;51.244;7.102;2022-10-15T18:44:15;12.40;;;11.80;;
17449;SDS011;8842;51.244;7.102;2022-10-15T18:49:29;12.10;;;11.50;;
17449;SDS011;8842;51.244;7.102;2022-10-15T18:59:47;12.07;;;11.47;;
17449;SDS011;8842;51.244;7.102;2022-10-15T19:04:52;11.70;;;11.10;;
17449;SDS011;8842;51.244;7.102;2022-10-15T19:09:56;12.20;;;11.60;;
17449;SDS011;8842;51.244;7.102;2022-10-15T19:15:10;12.20;;;11.60;;
17449;SDS011;8842;51.244;7.102;2022-10-15T19:20:14;12.67;;;11.97;;
17449;SDS011;8842;51.244;7.102;2022-10-15T19:25:29;12.20;;;11.60;;
17449;SDS011;8842;51.244;7.102;2022-10-15T19:30:33;12.80;;;12.10;;
17449;SDS011;8842;51.244;7.102;2022-10-15T19:35:48;12.40;;;11.80;;
17449;SDS011;8842;51.244;7.102;2022-10-15T19:40:52;12.40;;;11.80;;
17449;SDS011;8842;51.244;7.102;2022-10-15T19:46:06;12.10;;;11.50;;
17449;SDS011;8842;51.244;7.102;2022-10-15T19:56:23;12.17;;;11.57;;
17449;SDS011;8842;51.244;7.102;2022-10-15T20:06:42;12.20;;;11.60;;
17449;SDS011;8842;51.244;7.102;2022-10-15T20:11:56;12.40;;;11.80;;
17449;SDS011;8842;51.244;7.102;2022-10-15T20:17:00;12.00;;;11.40;;
17449;SDS011;8842;51.244;7.102;2022-10-15T20:22:15;11.97;;;11.37;;
17449;SDS011;8842;51.244;7.102;2022-10-15T20:32:32;12.10;;;11.50;;
17449;SDS011;8842;51.244;7.102;2022-10-15T20:37:38;11.93;;;11.33;;
17449;SDS011;8842;51.244;7.102;2022-10-15T20:42:53;12.20;;;11.60;;
17449;SDS011;8842;51.244;7.102;2022-10-15T20:47:57;11.30;;;10.70;;
17449;SDS011;8842;51.244;7.102;2022-10-15T20:53:15;12.30;;;11.70;;
17449;SDS011;8842;51.244;7.102;2022-10-15T21:03:31;12.00;;;11.40;;
17449;SDS011;8842;51.244;7.102;2022-10-15T21:13:50;12.00;;;11.40;;
17449;SDS011;8842;51.244;7.102;2022-10-15T21:18:55;11.87;;;11.27;;
17449;SDS011;8842;51.244;7.102;2022-10-15T21:24:06;11.80;;;11.20;;
17449;SDS011;8842;51.244;7.102;2022-10-15T21:34:23;11.90;;;11.30;;
17449;SDS011;8842;51.244;7.102;2022-10-15T21:39:35;12.00;;;11.40;;
17449;SDS011;8842;51.244;7.102;2022-10-15T21:44:39;11.90;;;11.30;;
17449;SDS011;8842;51.244;7.102;2022-10-15T21:49:51;11.80;;;11.20;;
17449;SDS011;8842;51.244;7.102;2022-10-15T21:55:06;11.80;;;11.20;;
17449;SDS011;8842;51.244;7.102;2022-10-15T22:00:12;11.53;;;10.93;;
17449;SDS011;8842;51.244;7.102;2022-10-15T22:05:27;11.70;;;11.10;;
17449;SDS011;8842;51.244;7.102;2022-10-15T22:10:31;11.70;;;11.10;;
17449;SDS011;8842;51.244;7.102;2022-10-15T22:15:36;11.73;;;11.13;;
17449;SDS011;8842;51.244;7.102;2022-10-15T22:20:48;11.80;;;11.20;;
17449;SDS011;8842;51.244;7.102;2022-10-15T22:26:01;12.20;;;11.60;;
17449;SDS011;8842;51.244;7.102;2022-10-15T22:31:13;11.70;;;11.10;;
17449;SDS011;8842;51.244;7.102;2022-10-15T22:36:19;11.73;;;11.13;;
17449;SDS011;8842;51.244;7.102;2022-10-15T22:41:33;11.67;;;11.07;;
17449;SDS011;8842;51.244;7.102;2022-10-15T22:51:49;12.00;;;11.40;;
17449;SDS011;8842;51.244;7.102;2022-10-15T23:02:08;11.90;;;11.30;;
17449;SDS011;8842;51.244;7.102;2022-10-15T23:07:23;11.73;;;11.13;;
17449;SDS011;8842;51.244;7.102;2022-10-15T23:12:27;11.90;;;11.30;;
17449;SDS011;8842;51.244;7.102;2022-10-15T23:17:48;11.30;;;10.70;;
17449;SDS011;8842;51.244;7.102;2022-10-15T23:23:02;11.47;;;10.87;;
17449;SDS011;8842;51.244;7.102;2022-10-15T23:33:21;12.03;;;11.43;;
17449;SDS011;8842;51.244;7.102;2022-10-15T23:43:38;11.63;;;11.03;;
17449;SDS011;8842;51.244;7.102;2022-10-15T23:48:50;12.00;;;11.40;;
17449;SDS011;8842;51.244;7.102;2022-10-15T23:54:02;11.80;;;11.20;;
